createdAt,value
2017-11-17T00:00:37.912Z,122.60
2017-11-17T00:01:37.916Z,113.50
2017-11-17T00:02:37.938Z,121.80
2017-11-17T00:03:37.946Z,128.10
2017-11-17T00:04:37.969Z,127.00
2017-11-17T00:05:37.979Z,112.90
2017-11-17T00:06:37.998Z,106.80
2017-11-17T00:07:38.011Z,123.50
2017-11-17T00:08:38.030Z,112.20
2017-11-17T00:09:38.040Z,121.30
2017-11-17T00:10:38.314Z,113.30
2017-11-17T00:11:38.072Z,128.30
2017-11-17T00:12:38.092Z,116.40
2017-11-17T00:13:38.099Z,120.40
2017-11-17T00:14:38.124Z,116.20
2017-11-17T00:15:38.129Z,114.10
2017-11-17T00:16:38.153Z,105.30
2017-11-17T00:17:38.162Z,104.40
2017-11-17T00:18:38.179Z,106.90
2017-11-17T00:19:38.194Z,117.70
2017-11-17T00:20:38.211Z,111.20
2017-11-17T00:21:38.224Z,119.60
2017-11-17T00:22:38.243Z,116.80
2017-11-17T00:23:38.252Z,110.70
2017-11-17T00:24:38.274Z,119.60
2017-11-17T00:25:38.292Z,109.60
2017-11-17T00:26:38.305Z,114.50
2017-11-17T00:27:38.323Z,116.00
2017-11-17T00:28:38.335Z,119.10
2017-11-17T00:29:38.352Z,110.70
2017-11-17T00:30:38.361Z,116.50
2017-11-17T00:31:38.389Z,116.10
2017-11-17T00:32:38.401Z,122.50
2017-11-17T00:33:38.417Z,117.70
2017-11-17T00:34:38.424Z,110.70
2017-11-17T00:35:38.443Z,110.90
2017-11-17T00:36:38.453Z,111.00
2017-11-17T00:37:38.477Z,113.30
2017-11-17T00:38:38.486Z,114.90
2017-11-17T00:39:38.514Z,102.20
2017-11-17T00:40:38.818Z,110.20
2017-11-17T00:41:38.536Z,112.30
2017-11-17T00:42:38.547Z,107.80
2017-11-17T00:43:38.566Z,102.90
2017-11-17T00:44:38.578Z,103.80
2017-11-17T00:45:38.596Z,104.80
2017-11-17T00:46:38.608Z,106.30
2017-11-17T00:47:38.628Z,103.80
2017-11-17T00:48:38.637Z,106.20
2017-11-17T00:49:38.657Z,104.70
2017-11-17T00:50:38.684Z,103.00
2017-11-17T00:51:38.686Z,104.10
2017-11-17T00:52:38.708Z,106.70
2017-11-17T00:53:38.716Z,99.60
2017-11-17T00:54:38.738Z,106.40
2017-11-17T00:55:38.747Z,89.50
2017-11-17T00:56:38.772Z,96.10
2017-11-17T00:57:38.802Z,92.20
2017-11-17T00:58:38.807Z,94.20
2017-11-17T00:59:38.811Z,92.60
2017-11-17T01:00:38.828Z,93.30
2017-11-17T01:01:38.841Z,96.80
2017-11-17T01:02:38.862Z,90.90
2017-11-17T01:03:38.868Z,95.40
2017-11-17T01:04:38.892Z,93.00
2017-11-17T01:05:38.902Z,83.40
2017-11-17T01:06:38.920Z,92.20
2017-11-17T01:07:38.932Z,83.70
2017-11-17T01:08:38.955Z,84.80
2017-11-17T01:09:38.973Z,87.50
2017-11-17T01:10:38.983Z,92.10
2017-11-17T01:11:38.994Z,90.60
2017-11-17T01:12:39.015Z,89.20
2017-11-17T01:13:39.035Z,91.50
2017-11-17T01:14:39.042Z,85.50
2017-11-17T01:15:39.062Z,89.90
2017-11-17T01:16:39.070Z,83.80
2017-11-17T01:17:39.096Z,98.90
2017-11-17T01:18:39.101Z,91.40
2017-11-17T01:19:39.133Z,90.50
2017-11-17T01:20:39.149Z,88.20
2017-11-17T01:21:39.156Z,86.60
2017-11-17T01:22:39.162Z,88.60
2017-11-17T01:23:39.182Z,89.60
2017-11-17T01:24:39.208Z,88.40
2017-11-17T01:25:39.212Z,95.40
2017-11-17T01:26:39.237Z,94.50
2017-11-17T01:27:39.243Z,100.70
2017-11-17T01:28:39.270Z,97.40
2017-11-17T01:29:39.274Z,97.70
2017-11-17T01:30:39.600Z,92.00
2017-11-17T01:31:39.309Z,96.80
2017-11-17T01:32:39.326Z,103.70
2017-11-17T01:33:39.338Z,98.90
2017-11-17T01:34:39.358Z,99.80
2017-11-17T01:35:39.364Z,101.00
2017-11-17T01:36:39.385Z,98.00
2017-11-17T01:37:39.395Z,98.50
2017-11-17T01:38:39.432Z,101.60
2017-11-17T01:39:39.427Z,103.40
2017-11-17T01:40:39.450Z,107.60
2017-11-17T01:41:39.484Z,105.90
2017-11-17T01:42:39.490Z,108.10
2017-11-17T01:43:39.501Z,115.00
2017-11-17T01:44:39.510Z,108.30
2017-11-17T01:45:39.532Z,103.80
2017-11-17T01:46:39.541Z,100.90
2017-11-17T01:47:39.558Z,124.90
2017-11-17T01:48:39.568Z,115.70
2017-11-17T01:49:39.590Z,127.00
2017-11-17T01:50:39.597Z,120.90
2017-11-17T01:51:39.623Z,124.60
2017-11-17T01:52:39.628Z,113.80
2017-11-17T01:53:39.654Z,115.10
2017-11-17T01:54:39.661Z,124.50
2017-11-17T01:55:39.680Z,122.60
2017-11-17T01:56:39.692Z,131.80
2017-11-17T01:57:39.714Z,126.20
2017-11-17T01:58:39.723Z,136.00
2017-11-17T01:59:39.742Z,154.20
2017-11-17T02:00:39.754Z,147.70
2017-11-17T02:01:39.775Z,134.50
2017-11-17T02:02:39.782Z,138.40
2017-11-17T02:03:39.801Z,137.50
2017-11-17T02:04:39.814Z,142.70
2017-11-17T02:05:39.831Z,142.10
2017-11-17T02:06:39.857Z,152.60
2017-11-17T02:07:39.863Z,156.20
2017-11-17T02:08:39.888Z,150.80
2017-11-17T02:09:39.897Z,159.50
2017-11-17T02:10:39.914Z,171.80
2017-11-17T02:11:39.924Z,153.20
2017-11-17T02:12:39.947Z,158.20
2017-11-17T02:13:39.968Z,163.90
2017-11-17T02:14:39.976Z,147.10
2017-11-17T02:15:40.286Z,138.10
2017-11-17T02:16:40.009Z,153.40
2017-11-17T02:17:40.018Z,141.90
2017-11-17T02:18:40.038Z,149.20
2017-11-17T02:19:40.059Z,160.00
2017-11-17T02:20:40.315Z,156.10
2017-11-17T02:21:40.077Z,145.70
2017-11-17T02:22:40.095Z,157.10
2017-11-17T02:23:40.104Z,157.80
2017-11-17T02:24:40.126Z,157.40
2017-11-17T02:25:40.138Z,158.50
2017-11-17T02:26:40.159Z,158.90
2017-11-17T02:27:40.164Z,167.20
2017-11-17T02:28:40.186Z,165.70
2017-11-17T02:29:40.202Z,177.50
2017-11-17T02:30:40.217Z,198.00
2017-11-17T02:31:40.224Z,165.30
2017-11-17T02:32:40.246Z,150.40
2017-11-17T02:33:40.255Z,177.70
2017-11-17T02:34:40.280Z,180.30
2017-11-17T02:35:40.291Z,168.90
2017-11-17T02:36:40.310Z,170.60
2017-11-17T02:37:40.328Z,202.40
2017-11-17T02:38:40.341Z,162.30
2017-11-17T02:39:40.352Z,168.10
2017-11-17T02:40:40.371Z,153.90
2017-11-17T02:41:40.376Z,147.40
2017-11-17T02:42:40.398Z,152.90
2017-11-17T02:43:40.406Z,149.90
2017-11-17T02:44:40.432Z,147.00
2017-11-17T02:45:40.689Z,138.10
2017-11-17T02:46:40.461Z,134.90
2017-11-17T02:47:40.467Z,144.90
2017-11-17T02:48:40.487Z,160.10
2017-11-17T02:49:40.496Z,147.70
2017-11-17T02:50:40.520Z,175.00
2017-11-17T02:51:40.528Z,171.60
2017-11-17T02:52:40.548Z,175.30
2017-11-17T02:53:40.558Z,148.70
2017-11-17T02:54:40.579Z,157.10
2017-11-17T02:55:40.591Z,161.80
2017-11-17T02:56:40.608Z,189.60
2017-11-17T02:57:40.617Z,152.20
2017-11-17T02:58:40.641Z,149.70
2017-11-17T02:59:40.663Z,152.60
2017-11-17T03:00:40.674Z,140.50
2017-11-17T03:01:40.722Z,129.20
2017-11-17T03:02:40.700Z,145.70
2017-11-17T03:03:40.715Z,159.10
2017-11-17T03:04:40.734Z,144.40
2017-11-17T03:05:40.740Z,132.20
2017-11-17T03:06:40.762Z,130.70
2017-11-17T03:07:40.769Z,137.90
2017-11-17T03:08:40.792Z,147.40
2017-11-17T03:09:40.805Z,129.80
2017-11-17T03:10:41.121Z,149.50
2017-11-17T03:11:40.831Z,148.00
2017-11-17T03:12:40.851Z,146.10
2017-11-17T03:13:40.883Z,143.20
2017-11-17T03:14:40.894Z,133.90
2017-11-17T03:15:41.158Z,185.20
2017-11-17T03:16:40.917Z,154.80
2017-11-17T03:17:40.946Z,160.80
2017-11-17T03:18:40.947Z,157.40
2017-11-17T03:19:40.965Z,172.20
2017-11-17T03:20:40.973Z,159.90
2017-11-17T03:21:41.010Z,139.20
2017-11-17T03:22:41.003Z,147.20
2017-11-17T03:23:41.026Z,152.30
2017-11-17T03:24:41.034Z,141.40
2017-11-17T03:25:41.308Z,151.80
2017-11-17T03:26:41.064Z,134.30
2017-11-17T03:27:41.086Z,138.00
2017-11-17T03:28:41.112Z,141.40
2017-11-17T03:29:41.115Z,141.50
2017-11-17T03:30:41.130Z,153.90
2017-11-17T03:31:41.148Z,157.40
2017-11-17T03:32:41.158Z,165.70
2017-11-17T03:33:41.176Z,163.70
2017-11-17T03:34:41.200Z,156.50
2017-11-17T03:35:41.206Z,148.60
2017-11-17T03:36:41.230Z,140.60
2017-11-17T03:37:41.236Z,148.80
2017-11-17T03:38:41.261Z,148.40
2017-11-17T03:39:41.266Z,133.10
2017-11-17T03:40:41.538Z,136.40
2017-11-17T03:41:41.307Z,140.50
2017-11-17T03:42:41.319Z,141.00
2017-11-17T03:43:41.331Z,157.50
2017-11-17T03:44:41.353Z,146.90
2017-11-17T03:45:41.391Z,137.50
2017-11-17T03:46:41.381Z,133.10
2017-11-17T03:47:41.389Z,123.10
2017-11-17T03:48:41.413Z,148.80
2017-11-17T03:49:41.437Z,153.50
2017-11-17T03:50:41.444Z,166.10
2017-11-17T03:51:41.459Z,143.10
2017-11-17T03:52:41.469Z,137.50
2017-11-17T03:53:41.492Z,126.30
2017-11-17T03:54:41.501Z,117.70
2017-11-17T03:55:41.519Z,128.10
2017-11-17T03:56:41.533Z,129.30
2017-11-17T03:57:41.554Z,128.70
2017-11-17T03:58:41.565Z,128.70
2017-11-17T03:59:41.581Z,122.80
2017-11-17T04:00:41.857Z,134.20
2017-11-17T04:01:41.620Z,125.50
2017-11-17T04:02:41.634Z,127.50
2017-11-17T04:03:41.645Z,124.30
2017-11-17T04:04:41.666Z,122.00
2017-11-17T04:05:41.973Z,133.10
2017-11-17T04:06:41.695Z,126.10
2017-11-17T04:07:41.705Z,146.10
2017-11-17T04:08:41.724Z,133.00
2017-11-17T04:09:41.733Z,140.20
2017-11-17T04:10:41.758Z,150.90
2017-11-17T04:11:41.765Z,136.20
2017-11-17T04:12:41.788Z,140.40
2017-11-17T04:13:41.810Z,130.10
2017-11-17T04:14:41.818Z,128.50
2017-11-17T04:15:41.836Z,145.30
2017-11-17T04:16:41.849Z,127.30
2017-11-17T04:17:41.867Z,124.40
2017-11-17T04:18:41.879Z,130.40
2017-11-17T04:19:41.899Z,138.60
2017-11-17T04:20:41.906Z,149.30
2017-11-17T04:21:41.926Z,169.00
2017-11-17T04:22:41.949Z,151.80
2017-11-17T04:23:41.958Z,144.40
2017-11-17T04:24:41.979Z,155.50
2017-11-17T04:25:42.242Z,161.70
2017-11-17T04:26:42.009Z,157.10
2017-11-17T04:27:42.022Z,136.40
2017-11-17T04:28:42.039Z,149.20
2017-11-17T04:29:42.052Z,144.40
2017-11-17T04:30:42.073Z,150.50
2017-11-17T04:31:42.082Z,139.50
2017-11-17T04:32:42.104Z,140.80
2017-11-17T04:33:42.125Z,141.60
2017-11-17T04:34:42.128Z,158.20
2017-11-17T04:35:42.152Z,147.10
2017-11-17T04:36:42.160Z,141.50
2017-11-17T04:37:42.183Z,144.10
2017-11-17T04:38:42.193Z,152.40
2017-11-17T04:39:42.212Z,158.70
2017-11-17T04:40:42.526Z,159.40
2017-11-17T04:41:42.243Z,159.10
2017-11-17T04:42:42.269Z,143.20
2017-11-17T04:43:42.274Z,137.50
2017-11-17T04:44:42.294Z,144.00
2017-11-17T04:45:42.307Z,144.50
2017-11-17T04:46:42.328Z,129.10
2017-11-17T04:47:42.336Z,128.10
2017-11-17T04:48:42.355Z,126.10
2017-11-17T04:49:42.364Z,114.80
2017-11-17T04:50:42.389Z,111.80
2017-11-17T04:51:42.394Z,125.90
2017-11-17T04:52:42.414Z,138.20
2017-11-17T04:53:42.438Z,136.70
2017-11-17T04:54:42.445Z,123.40
2017-11-17T04:55:42.466Z,132.50
2017-11-17T04:56:42.475Z,131.20
2017-11-17T04:57:42.501Z,128.80
2017-11-17T04:58:42.506Z,117.10
2017-11-17T04:59:42.528Z,120.60
2017-11-17T05:00:42.540Z,111.50
2017-11-17T05:01:42.560Z,120.70
2017-11-17T05:02:42.580Z,122.60
2017-11-17T05:03:42.591Z,115.70
2017-11-17T05:04:42.612Z,116.70
2017-11-17T05:05:42.621Z,108.70
2017-11-17T05:06:42.638Z,113.50
2017-11-17T05:07:42.654Z,112.80
2017-11-17T05:08:42.669Z,115.80
2017-11-17T05:09:42.687Z,110.90
2017-11-17T05:10:42.702Z,119.20
2017-11-17T05:11:42.721Z,100.30
2017-11-17T05:12:42.729Z,115.10
2017-11-17T05:13:42.752Z,111.00
2017-11-17T05:14:42.760Z,120.70
2017-11-17T05:15:43.083Z,124.70
2017-11-17T05:16:42.796Z,118.20
2017-11-17T05:17:42.815Z,127.50
2017-11-17T05:18:42.821Z,110.60
2017-11-17T05:19:42.845Z,111.30
2017-11-17T05:20:42.855Z,97.80
2017-11-17T05:21:42.876Z,95.10
2017-11-17T05:22:42.895Z,108.10
2017-11-17T05:23:42.903Z,107.70
2017-11-17T05:24:42.927Z,110.20
2017-11-17T05:25:42.941Z,121.10
2017-11-17T05:26:42.959Z,119.50
2017-11-17T05:27:42.963Z,119.90
2017-11-17T05:28:42.988Z,126.30
2017-11-17T05:29:43.008Z,130.70
2017-11-17T05:30:43.016Z,135.10
2017-11-17T05:31:43.027Z,135.00
2017-11-17T05:32:43.046Z,145.60
2017-11-17T05:33:43.066Z,121.30
2017-11-17T05:34:43.079Z,128.40
2017-11-17T05:35:43.348Z,133.20
2017-11-17T05:36:43.108Z,132.20
2017-11-17T05:37:43.132Z,118.10
2017-11-17T05:38:43.140Z,126.70
2017-11-17T05:39:43.158Z,125.80
2017-11-17T05:40:43.416Z,133.20
2017-11-17T05:41:43.187Z,144.60
2017-11-17T05:42:43.201Z,138.10
2017-11-17T05:43:43.221Z,148.50
2017-11-17T05:44:43.229Z,143.90
2017-11-17T05:45:43.552Z,136.40
2017-11-17T05:46:43.271Z,133.30
2017-11-17T05:47:43.279Z,129.30
2017-11-17T05:48:43.304Z,132.60
2017-11-17T05:49:43.309Z,133.60
2017-11-17T05:50:43.334Z,129.20
2017-11-17T05:51:43.339Z,128.00
2017-11-17T05:52:43.364Z,134.90
2017-11-17T05:53:43.370Z,141.40
2017-11-17T05:54:43.395Z,153.00
2017-11-17T05:55:43.400Z,159.50
2017-11-17T05:56:43.424Z,132.00
2017-11-17T05:57:43.471Z,157.20
2017-11-17T05:58:43.452Z,159.30
2017-11-17T05:59:43.510Z,153.40
2017-11-17T06:00:43.485Z,148.30
2017-11-17T06:01:43.511Z,134.00
2017-11-17T06:02:43.514Z,132.50
2017-11-17T06:03:43.536Z,128.70
2017-11-17T06:04:43.545Z,136.20
2017-11-17T06:05:43.564Z,128.90
2017-11-17T06:06:43.577Z,127.70
2017-11-17T06:07:43.594Z,124.40
2017-11-17T06:08:43.607Z,138.40
2017-11-17T06:09:43.624Z,131.70
2017-11-17T06:10:43.885Z,126.70
2017-11-17T06:11:43.654Z,131.50
2017-11-17T06:12:43.666Z,132.60
2017-11-17T06:13:43.685Z,126.80
2017-11-17T06:14:43.711Z,118.10
2017-11-17T06:15:43.719Z,132.40
2017-11-17T06:16:43.740Z,129.70
2017-11-17T06:17:43.749Z,113.00
2017-11-17T06:18:43.796Z,120.80
2017-11-17T06:19:43.779Z,116.50
2017-11-17T06:20:43.799Z,124.90
2017-11-17T06:21:43.806Z,129.80
2017-11-17T06:22:43.830Z,126.10
2017-11-17T06:23:43.840Z,118.70
2017-11-17T06:24:43.862Z,114.00
2017-11-17T06:25:43.867Z,109.20
2017-11-17T06:26:43.888Z,118.70
2017-11-17T06:27:43.897Z,133.60
2017-11-17T06:28:43.917Z,118.10
2017-11-17T06:29:43.940Z,117.20
2017-11-17T06:30:43.948Z,124.00
2017-11-17T06:31:43.970Z,124.20
2017-11-17T06:32:43.991Z,145.50
2017-11-17T06:33:44.003Z,113.90
2017-11-17T06:34:44.008Z,118.30
2017-11-17T06:35:44.034Z,120.00
2017-11-17T06:36:44.041Z,129.10
2017-11-17T06:37:44.064Z,120.00
2017-11-17T06:38:44.073Z,124.50
2017-11-17T06:39:44.094Z,145.40
2017-11-17T06:40:44.350Z,137.10
2017-11-17T06:41:44.123Z,122.10
2017-11-17T06:42:44.140Z,132.60
2017-11-17T06:43:44.156Z,134.00
2017-11-17T06:44:44.165Z,142.20
2017-11-17T06:45:44.187Z,141.10
2017-11-17T06:46:44.206Z,135.10
2017-11-17T06:47:44.212Z,148.50
2017-11-17T06:48:44.236Z,131.30
2017-11-17T06:49:44.242Z,131.00
2017-11-17T06:50:44.276Z,139.50
2017-11-17T06:51:44.274Z,133.80
2017-11-17T06:52:44.293Z,125.90
2017-11-17T06:53:44.305Z,119.60
2017-11-17T06:54:44.328Z,136.70
2017-11-17T06:55:44.337Z,149.60
2017-11-17T06:56:44.357Z,135.80
2017-11-17T06:57:44.363Z,144.80
2017-11-17T06:58:44.387Z,128.10
2017-11-17T06:59:44.400Z,133.50
2017-11-17T07:00:44.420Z,134.60
2017-11-17T07:01:44.425Z,146.00
2017-11-17T07:02:44.445Z,172.60
2017-11-17T07:03:44.460Z,126.40
2017-11-17T07:04:44.475Z,136.90
2017-11-17T07:05:44.488Z,152.30
2017-11-17T07:06:44.508Z,138.60
2017-11-17T07:07:44.519Z,149.70
2017-11-17T07:08:44.540Z,118.70
2017-11-17T07:09:44.545Z,123.40
2017-11-17T07:10:44.565Z,137.50
2017-11-17T07:11:44.578Z,124.50
2017-11-17T07:12:44.600Z,118.70
2017-11-17T07:13:44.621Z,128.90
2017-11-17T07:14:44.627Z,142.50
2017-11-17T07:15:44.635Z,120.80
2017-11-17T07:16:44.661Z,119.70
2017-11-17T07:17:44.670Z,120.10
2017-11-17T07:18:44.687Z,124.70
2017-11-17T07:19:44.697Z,144.30
2017-11-17T07:20:44.974Z,137.90
2017-11-17T07:21:44.726Z,122.50
2017-11-17T07:22:44.759Z,112.40
2017-11-17T07:23:44.760Z,107.50
2017-11-17T07:24:44.771Z,117.90
2017-11-17T07:25:44.787Z,117.60
2017-11-17T07:26:44.812Z,113.20
2017-11-17T07:27:44.821Z,114.50
2017-11-17T07:28:44.829Z,122.40
2017-11-17T07:29:44.854Z,105.40
2017-11-17T07:30:44.861Z,116.90
2017-11-17T07:31:44.884Z,121.20
2017-11-17T07:32:44.890Z,95.60
2017-11-17T07:33:44.914Z,100.50
2017-11-17T07:34:44.923Z,118.90
2017-11-17T07:35:44.942Z,100.40
2017-11-17T07:36:44.956Z,96.10
2017-11-17T07:37:44.969Z,96.20
2017-11-17T07:38:44.986Z,82.40
2017-11-17T07:39:45.006Z,92.40
2017-11-17T07:40:45.260Z,87.60
2017-11-17T07:41:45.038Z,89.20
2017-11-17T07:42:45.041Z,84.00
2017-11-17T07:43:45.072Z,84.60
2017-11-17T07:44:45.077Z,79.10
2017-11-17T07:45:45.097Z,72.10
2017-11-17T07:46:45.107Z,69.20
2017-11-17T07:47:45.112Z,66.90
2017-11-17T07:48:45.135Z,68.30
2017-11-17T07:49:45.144Z,67.60
2017-11-17T07:50:45.161Z,69.50
2017-11-17T07:51:45.177Z,67.80
2017-11-17T07:52:45.197Z,66.40
2017-11-17T07:53:45.204Z,60.60
2017-11-17T07:54:45.225Z,58.00
2017-11-17T07:55:45.229Z,56.10
2017-11-17T07:56:45.254Z,72.00
2017-11-17T07:57:45.263Z,67.80
2017-11-17T07:58:45.283Z,66.00
2017-11-17T07:59:45.301Z,59.20
2017-11-17T08:00:45.315Z,62.60
2017-11-17T08:01:45.325Z,57.00
2017-11-17T08:02:45.346Z,62.80
2017-11-17T08:03:45.350Z,54.20
2017-11-17T08:04:45.376Z,52.40
2017-11-17T08:05:45.388Z,56.20
2017-11-17T08:06:45.406Z,56.70
2017-11-17T08:07:45.421Z,53.50
2017-11-17T08:08:45.438Z,49.30
2017-11-17T08:09:45.446Z,47.60
2017-11-17T08:10:45.472Z,47.80
2017-11-17T08:11:45.474Z,42.40
2017-11-17T08:12:45.487Z,46.80
2017-11-17T08:13:45.505Z,47.70
2017-11-17T08:14:45.517Z,47.90
2017-11-17T08:15:45.535Z,40.40
2017-11-17T08:16:45.546Z,43.80
2017-11-17T08:17:45.562Z,42.00
2017-11-17T08:18:45.577Z,43.00
2017-11-17T08:19:45.613Z,41.30
2017-11-17T08:20:45.605Z,41.20
2017-11-17T08:21:45.629Z,40.90
2017-11-17T08:22:45.637Z,46.20
2017-11-17T08:23:45.660Z,45.30
2017-11-17T08:24:45.670Z,42.20
2017-11-17T08:25:45.689Z,40.90
2017-11-17T08:26:45.696Z,44.10
2017-11-17T08:27:45.714Z,45.70
2017-11-17T08:28:45.723Z,48.00
2017-11-17T08:29:45.753Z,47.70
2017-11-17T08:30:45.758Z,44.00
2017-11-17T08:31:45.781Z,39.70
2017-11-17T08:32:45.801Z,39.20
2017-11-17T08:33:45.808Z,39.40
2017-11-17T08:34:45.819Z,39.80
2017-11-17T08:35:45.834Z,44.30
2017-11-17T08:36:45.871Z,47.40
2017-11-17T08:37:45.875Z,44.80
2017-11-17T08:38:45.900Z,40.50
2017-11-17T08:39:45.901Z,38.90
2017-11-17T08:40:45.910Z,41.30
2017-11-17T08:41:45.929Z,51.40
2017-11-17T08:42:45.938Z,37.10
2017-11-17T08:43:45.961Z,36.40
2017-11-17T08:44:45.967Z,41.00
2017-11-17T08:45:46.001Z,36.80
2017-11-17T08:46:45.999Z,34.40
2017-11-17T08:47:46.025Z,35.00
2017-11-17T08:48:46.032Z,37.10
2017-11-17T08:49:46.052Z,36.60
2017-11-17T08:50:46.062Z,35.40
2017-11-17T08:51:46.080Z,47.20
2017-11-17T08:52:46.091Z,37.00
2017-11-17T08:53:46.115Z,32.80
2017-11-17T08:54:46.119Z,32.90
2017-11-17T08:55:46.140Z,33.40
2017-11-17T08:56:46.150Z,32.60
2017-11-17T08:57:46.173Z,34.60
2017-11-17T08:58:46.185Z,29.40
2017-11-17T08:59:46.200Z,31.60
2017-11-17T09:00:46.210Z,30.50
2017-11-17T09:01:46.243Z,33.30
2017-11-17T09:02:46.257Z,29.40
2017-11-17T09:03:46.259Z,35.10
2017-11-17T09:04:46.285Z,30.40
2017-11-17T09:05:46.295Z,38.30
2017-11-17T09:06:46.314Z,28.10
2017-11-17T09:07:46.328Z,28.40
2017-11-17T09:08:46.344Z,30.80
2017-11-17T09:09:46.351Z,28.00
2017-11-17T09:10:46.376Z,27.40
2017-11-17T09:11:46.382Z,27.60
2017-11-17T09:12:46.403Z,29.50
2017-11-17T09:13:46.420Z,28.50
2017-11-17T09:14:46.434Z,25.10
2017-11-17T09:15:46.445Z,20.50
2017-11-17T09:16:46.466Z,27.60
2017-11-17T09:17:46.487Z,26.10
2017-11-17T09:18:46.500Z,26.10
2017-11-17T09:19:46.514Z,25.70
2017-11-17T09:20:46.523Z,26.20
2017-11-17T09:21:46.553Z,28.50
2017-11-17T09:22:46.559Z,30.40
2017-11-17T09:23:46.588Z,25.50
2017-11-17T09:24:46.592Z,25.30
2017-11-17T09:25:46.611Z,22.80
2017-11-17T09:26:46.633Z,26.20
2017-11-17T09:27:46.636Z,22.40
2017-11-17T09:28:46.656Z,25.10
2017-11-17T09:29:46.667Z,23.00
2017-11-17T09:30:46.692Z,22.40
2017-11-17T09:31:46.700Z,32.40
2017-11-17T09:32:46.730Z,23.50
2017-11-17T09:33:46.727Z,24.00
2017-11-17T09:34:46.751Z,22.10
2017-11-17T09:35:46.779Z,21.10
2017-11-17T09:36:46.780Z,23.40
2017-11-17T09:37:46.805Z,20.50
2017-11-17T09:38:46.807Z,28.70
2017-11-17T09:39:46.832Z,27.10
2017-11-17T09:40:46.841Z,21.00
2017-11-17T09:41:46.862Z,27.00
2017-11-17T09:42:46.877Z,28.80
2017-11-17T09:43:46.894Z,22.80
2017-11-17T09:44:46.910Z,28.00
2017-11-17T09:45:46.933Z,24.40
2017-11-17T09:46:46.964Z,24.30
2017-11-17T09:47:46.959Z,20.30
2017-11-17T09:48:46.974Z,23.70
2017-11-17T09:49:46.996Z,19.10
2017-11-17T09:50:47.015Z,17.40
2017-11-17T09:51:47.012Z,19.40
2017-11-17T09:52:47.032Z,28.40
2017-11-17T09:53:47.060Z,23.30
2017-11-17T09:54:47.064Z,22.50
2017-11-17T09:55:47.090Z,16.80
2017-11-17T09:56:47.099Z,15.80
2017-11-17T09:57:47.118Z,23.60
2017-11-17T09:58:47.146Z,18.20
2017-11-17T09:59:47.143Z,17.90
2017-11-17T10:00:47.170Z,19.20
2017-11-17T10:01:47.179Z,19.50
2017-11-17T10:02:47.197Z,20.80
2017-11-17T10:03:47.217Z,19.70
2017-11-17T10:04:47.237Z,21.50
2017-11-17T10:05:47.252Z,16.20
2017-11-17T10:06:47.261Z,18.10
2017-11-17T10:07:47.280Z,18.90
2017-11-17T10:08:47.292Z,16.30
2017-11-17T10:09:47.315Z,25.00
2017-11-17T10:10:47.333Z,23.30
2017-11-17T10:11:47.351Z,21.30
2017-11-17T10:12:47.386Z,17.90
2017-11-17T10:13:47.375Z,17.80
2017-11-17T10:14:47.409Z,19.00
2017-11-17T10:15:47.402Z,16.60
2017-11-17T10:16:47.424Z,17.70
2017-11-17T10:17:47.446Z,17.30
2017-11-17T10:18:47.453Z,20.60
2017-11-17T10:19:47.479Z,15.40
2017-11-17T10:20:47.502Z,14.60
2017-11-17T10:21:47.504Z,18.50
2017-11-17T10:22:47.530Z,21.30
2017-11-17T10:23:47.537Z,15.80
2017-11-17T10:24:47.555Z,16.60
2017-11-17T10:25:47.581Z,16.00
2017-11-17T10:26:47.590Z,20.90
2017-11-17T10:27:47.609Z,18.50
2017-11-17T10:28:47.641Z,20.40
2017-11-17T10:29:47.640Z,16.90
2017-11-17T10:30:47.667Z,18.70
2017-11-17T10:31:47.669Z,23.70
2017-11-17T10:32:47.690Z,13.50
2017-11-17T10:33:47.713Z,17.30
2017-11-17T10:34:47.718Z,24.80
2017-11-17T10:35:47.746Z,23.60
2017-11-17T10:36:47.758Z,15.60
2017-11-17T10:37:47.771Z,15.50
2017-11-17T10:38:47.800Z,18.00
2017-11-17T10:39:47.798Z,18.50
2017-11-17T10:40:47.820Z,14.40
2017-11-17T10:41:47.845Z,15.50
2017-11-17T10:42:47.855Z,20.40
2017-11-17T10:43:47.890Z,19.60
2017-11-17T10:44:47.888Z,16.00
2017-11-17T10:45:47.905Z,15.60
2017-11-17T10:46:47.931Z,16.80
2017-11-17T10:47:47.938Z,20.20
2017-11-17T10:48:47.959Z,14.40
2017-11-17T10:49:47.985Z,19.70
2017-11-17T10:50:47.987Z,14.00
2017-11-17T10:51:48.011Z,17.10
2017-11-17T10:52:48.024Z,11.80
2017-11-17T10:53:48.045Z,19.20
2017-11-17T10:54:48.067Z,17.30
2017-11-17T10:55:48.070Z,19.30
2017-11-17T10:56:48.094Z,13.60
2017-11-17T10:57:48.116Z,16.60
2017-11-17T10:58:48.121Z,16.50
2017-11-17T10:59:48.146Z,14.60
2017-11-17T11:00:48.168Z,15.80
2017-11-17T11:01:48.176Z,17.70
2017-11-17T11:02:48.197Z,20.40
2017-11-17T11:03:48.204Z,17.40
2017-11-17T11:04:48.224Z,17.70
2017-11-17T11:05:48.249Z,17.60
2017-11-17T11:06:48.259Z,15.40
2017-11-17T11:07:48.277Z,17.50
2017-11-17T11:08:48.301Z,18.10
2017-11-17T11:09:48.309Z,15.80
2017-11-17T11:10:48.324Z,12.10
2017-11-17T11:11:48.352Z,21.70
2017-11-17T11:12:48.359Z,12.60
2017-11-17T11:13:48.379Z,19.10
2017-11-17T11:14:48.405Z,13.80
2017-11-17T11:15:48.427Z,17.90
2017-11-17T11:16:48.431Z,15.30
2017-11-17T11:17:48.456Z,17.00
2017-11-17T11:18:48.463Z,8.40
2017-11-17T11:19:48.486Z,15.20
2017-11-17T11:20:48.511Z,20.60
2017-11-17T11:21:48.513Z,20.40
2017-11-17T11:22:48.539Z,15.20
2017-11-17T11:23:48.556Z,18.00
2017-11-17T11:24:48.565Z,16.90
2017-11-17T11:25:48.599Z,20.40
2017-11-17T11:26:48.608Z,15.60
2017-11-17T11:27:48.620Z,21.10
2017-11-17T11:28:48.655Z,25.00
2017-11-17T11:29:48.662Z,20.50
2017-11-17T11:30:48.669Z,16.10
2017-11-17T11:31:48.690Z,21.60
2017-11-17T11:32:48.707Z,18.20
2017-11-17T11:33:48.720Z,14.90
2017-11-17T11:34:48.740Z,17.50
2017-11-17T11:35:48.764Z,14.30
2017-11-17T11:36:48.773Z,12.70
2017-11-17T11:37:48.795Z,14.00
2017-11-17T11:38:48.820Z,18.20
2017-11-17T11:39:48.818Z,19.30
2017-11-17T11:40:48.840Z,14.30
2017-11-17T11:41:48.870Z,15.90
2017-11-17T11:42:48.875Z,11.60
2017-11-17T11:43:48.902Z,21.30
2017-11-17T11:44:48.921Z,15.90
2017-11-17T11:45:48.929Z,13.70
2017-11-17T11:46:48.954Z,14.60
2017-11-17T11:47:48.967Z,9.90
2017-11-17T11:48:48.979Z,13.90
2017-11-17T11:49:49.002Z,15.00
2017-11-17T11:50:49.022Z,14.90
2017-11-17T11:51:49.035Z,11.70
2017-11-17T11:52:49.052Z,13.50
2017-11-17T11:53:49.076Z,18.20
2017-11-17T11:54:49.084Z,16.60
2017-11-17T11:55:49.101Z,16.30
2017-11-17T11:56:49.126Z,11.60
2017-11-17T11:57:49.135Z,12.70
2017-11-17T11:58:49.152Z,13.10
2017-11-17T11:59:49.172Z,20.90
2017-11-17T12:00:49.190Z,14.50
2017-11-17T12:01:49.206Z,12.80
2017-11-17T12:02:49.219Z,18.20
2017-11-17T12:03:49.240Z,15.10
2017-11-17T12:04:49.257Z,15.90
2017-11-17T12:05:49.285Z,11.20
2017-11-17T12:06:49.290Z,15.90
2017-11-17T12:07:49.314Z,22.20
2017-11-17T12:08:49.340Z,15.70
2017-11-17T12:09:49.337Z,13.10
2017-11-17T12:10:49.365Z,15.70
2017-11-17T12:11:49.366Z,11.20
2017-11-17T12:12:49.386Z,15.40
2017-11-17T12:13:49.414Z,9.00
2017-11-17T12:14:49.420Z,11.60
2017-11-17T12:15:49.446Z,8.70
2017-11-17T12:16:49.469Z,14.90
2017-11-17T12:17:49.472Z,9.70
2017-11-17T12:18:49.501Z,14.80
2017-11-17T12:19:49.519Z,11.30
2017-11-17T12:20:49.523Z,16.10
2017-11-17T12:21:49.551Z,18.20
2017-11-17T12:22:49.566Z,15.20
2017-11-17T12:23:49.579Z,10.70
2017-11-17T12:24:49.604Z,12.70
2017-11-17T12:25:49.619Z,11.50
2017-11-17T12:26:49.627Z,14.60
2017-11-17T12:27:49.657Z,11.50
2017-11-17T12:28:49.657Z,12.90
2017-11-17T12:29:49.682Z,11.20
2017-11-17T12:30:49.697Z,9.70
2017-11-17T12:31:49.716Z,19.90
2017-11-17T12:32:49.734Z,16.30
2017-11-17T12:33:49.754Z,16.50
2017-11-17T12:34:49.772Z,15.60
2017-11-17T12:35:49.782Z,12.00
2017-11-17T12:36:49.806Z,11.30
2017-11-17T12:37:49.816Z,9.40
2017-11-17T12:38:49.833Z,14.30
2017-11-17T12:39:49.849Z,13.90